Time;durP1;ratioP1;P1;durP2;ratioP2;P2;SDS_P1;SDS_P2;PMS_P1;PMS_P2;Temp;Humidity;BMP_temperature;BMP_pressure;BME280_temperature;BME280_humidity;BME280_pressure;Samples;Min_cycle;Max_cycle;Signal;HPM_P1;HPM_P2
2022/07/10 00:00:13;;;;;;;7.03;2.10;;;;;;;14.14;71.31;102590.75;4994043;28;20442;-76
2022/07/10 00:02:40;;;;;;;7.22;2.08;;;;;;;14.21;71.01;102591.59;4990288;28;20029;-77
2022/07/10 00:05:06;;;;;;;4.75;2.05;;;;;;;14.22;70.33;102582.41;5009609;28;20050;-76
2022/07/10 00:07:32;;;;;;;5.30;2.10;;;;;;;14.15;70.75;102592.44;5001696;28;20381;-78
2022/07/10 00:09:57;;;;;;;6.93;2.10;;;;;;;14.16;70.81;102589.50;5012413;28;20014;-76
2022/07/10 00:12:22;;;;;;;6.68;2.35;;;;;;;14.14;70.61;102599.75;5013126;28;20021;-75
2022/07/10 00:14:48;;;;;;;5.22;2.13;;;;;;;14.20;70.43;102595.38;5013495;28;20024;-77
2022/07/10 00:17:13;;;;;;;7.55;2.13;;;;;;;14.19;70.55;102599.13;5013061;28;20041;-77
2022/07/10 00:19:39;;;;;;;5.07;1.70;;;;;;;14.21;70.82;102593.50;5013200;28;20442;-75
2022/07/10 00:22:04;;;;;;;6.05;1.98;;;;;;;14.23;70.56;102592.22;5005561;28;20030;-75
2022/07/10 00:24:29;;;;;;;6.47;1.90;;;;;;;14.18;70.93;102581.97;4993200;28;20109;-77
2022/07/10 00:26:55;;;;;;;9.13;2.05;;;;;;;14.15;70.49;102587.00;4993755;28;20077;-75
2022/07/10 00:29:20;;;;;;;9.07;1.80;;;;;;;14.17;70.74;102588.44;4993481;28;20088;-75
2022/07/10 00:31:45;;;;;;;4.35;1.90;;;;;;;14.14;70.87;102590.75;4992345;28;20361;-75
2022/07/10 00:34:11;;;;;;;8.90;1.90;;;;;;;14.09;71.30;102587.81;5007693;28;20034;-78
2022/07/10 00:36:37;;;;;;;5.88;1.90;;;;;;;14.09;71.35;102585.09;4993892;28;20057;-78
2022/07/10 00:39:02;;;;;;;8.18;2.13;;;;;;;14.07;71.78;102589.88;4999799;28;20403;-77
2022/07/10 00:41:27;;;;;;;6.90;2.10;;;;;;;14.06;72.01;102577.34;4973865;28;20446;-75
2022/07/10 00:43:55;;;;;;;7.20;2.05;;;;;;;14.02;72.16;102584.22;4974127;28;21510;-78
2022/07/10 00:46:20;;;;;;;5.82;2.05;;;;;;;13.90;72.08;102582.09;4973836;28;20041;-75
2022/07/10 00:48:49;;;;;;;3.78;1.80;;;;;;;13.85;72.80;102570.16;4972809;28;20363;-75
2022/07/10 00:51:20;;;;;;;8.32;1.88;;;;;;;13.83;73.39;102565.75;4972794;28;20416;-75
2022/07/10 00:53:46;;;;;;;8.88;2.47;;;;;;;13.91;73.02;102572.91;4988609;28;20034;-77
2022/07/10 00:56:13;;;;;;;8.02;2.28;;;;;;;13.89;73.46;102566.84;4993402;28;20026;-75
2022/07/10 00:58:40;;;;;;;4.32;2.10;;;;;;;13.86;73.82;102564.53;5008236;28;20026;-77
2022/07/10 01:01:06;;;;;;;4.93;2.10;;;;;;;13.95;73.46;102571.44;4990910;28;20061;-78
2022/07/10 01:03:31;;;;;;;5.53;2.22;;;;;;;13.92;73.56;102563.69;4993328;28;20037;-75
2022/07/10 01:05:58;;;;;;;7.63;2.20;;;;;;;13.92;74.00;102563.69;4984987;28;20034;-78
2022/07/10 01:08:23;;;;;;;7.90;2.25;;;;;;;13.92;74.19;102555.53;4984525;28;20030;-75
2022/07/10 01:10:49;;;;;;;6.00;1.95;;;;;;;13.88;74.33;102565.13;4991917;28;20338;-75
2022/07/10 01:13:15;;;;;;;7.93;2.17;;;;;;;13.86;74.73;102556.34;4992979;28;20134;-76
2022/07/10 01:15:40;;;;;;;5.07;2.10;;;;;;;13.78;75.03;102543.78;5009730;28;20522;-76
2022/07/10 01:18:06;;;;;;;11.30;2.78;;;;;;;13.79;75.17;102544.59;4996845;28;20129;-78
2022/07/10 01:20:33;;;;;;;7.32;2.63;;;;;;;13.80;75.55;102546.28;4988475;28;20085;-78
2022/07/10 01:22:59;;;;;;;8.05;2.13;;;;;;;13.78;75.85;102543.78;4977359;28;20039;-77
2022/07/10 01:25:24;;;;;;;8.02;2.60;;;;;;;13.78;76.15;102541.06;4976988;28;20022;-75
2022/07/10 01:27:50;;;;;;;6.40;2.47;;;;;;;13.77;75.96;102527.66;4986954;28;20033;-75
2022/07/10 01:30:16;;;;;;;10.95;2.80;;;;;;;13.79;76.12;102534.56;4996990;28;20105;-75
2022/07/10 01:32:41;;;;;;;9.15;2.35;;;;;;;13.70;77.24;102532.25;4995404;28;20030;-76
2022/07/10 01:35:07;;;;;;;6.53;2.03;;;;;;;13.74;76.85;102538.94;4996177;28;20062;-76
2022/07/10 01:37:33;;;;;;;6.03;2.22;;;;;;;13.72;76.92;102530.13;4992459;28;20031;-75
2022/07/10 01:39:58;;;;;;;4.18;2.15;;;;;;;13.73;76.90;102529.09;4975991;28;20073;-76
2022/07/10 01:42:24;;;;;;;7.35;2.85;;;;;;;13.69;77.52;102525.09;4977425;28;20055;-77
2022/07/10 01:44:49;;;;;;;9.32;2.83;;;;;;;13.64;78.57;102528.44;4976919;28;20489;-75
2022/07/10 01:47:14;;;;;;;9.18;2.33;;;;;;;13.64;78.23;102531.16;4988470;28;20030;-77
2022/07/10 01:49:40;;;;;;;7.65;2.53;;;;;;;13.62;78.42;102525.94;4996377;28;20054;-75
2022/07/10 01:52:05;;;;;;;7.47;2.25;;;;;;;13.60;78.84;102529.88;4990229;28;20035;-77
2022/07/10 01:54:30;;;;;;;9.10;2.50;;;;;;;13.68;78.12;102532.44;4976859;28;20109;-75
2022/07/10 01:56:56;;;;;;;9.63;2.53;;;;;;;13.68;77.70;102524.28;4975785;28;20031;-76
2022/07/10 01:59:21;;;;;;;6.88;2.55;;;;;;;13.67;78.08;102529.94;4976614;28;20081;-74
2022/07/10 02:01:46;;;;;;;7.43;2.38;;;;;;;13.70;78.34;102540.41;4974471;28;20054;-77
2022/07/10 02:06:55;;;;;;;5.82;2.42;;;;;;;13.68;78.43;102520.69;4976319;28;20053;-75
2022/07/10 02:09:21;;;;;;;6.28;2.70;;;;;;;13.61;78.20;102523.41;4976832;28;20433;-75
2022/07/10 02:11:46;;;;;;;9.85;2.72;;;;;;;13.62;78.94;102531.38;4990950;28;20033;-77
2022/07/10 02:14:11;;;;;;;7.53;2.78;;;;;;;13.60;79.14;102525.31;4995914;28;20085;-77
2022/07/10 02:16:37;;;;;;;10.07;2.78;;;;;;;13.57;79.41;102525.72;4995924;28;20484;-75
2022/07/10 02:19:03;;;;;;;7.18;2.45;;;;;;;13.56;79.20;102534.91;4996080;28;20042;-77
2022/07/10 02:21:28;;;;;;;8.07;2.58;;;;;;;13.54;79.60;102526.13;4989411;28;20049;-75
2022/07/10 02:23:53;;;;;;;7.90;2.55;;;;;;;13.57;79.48;102533.88;4975007;28;20085;-75
2022/07/10 02:26:19;;;;;;;6.38;2.40;;;;;;;13.50;80.29;102527.56;4995030;28;20022;-76
2022/07/10 02:28:44;;;;;;;7.78;2.42;;;;;;;13.53;80.05;102532.59;4995698;28;20766;-75
2022/07/10 02:31:09;;;;;;;10.88;2.63;;;;;;;13.42;80.77;102516.84;4994596;28;20084;-75
2022/07/10 02:33:36;;;;;;;8.50;2.53;;;;;;;13.42;81.07;102525.88;4995975;28;20369;-75
2022/07/10 02:36:02;;;;;;;8.32;2.60;;;;;;;13.40;81.50;102527.09;5001190;28;20027;-76
2022/07/10 02:38:27;;;;;;;9.65;2.67;;;;;;;13.41;81.05;102520.63;5015048;28;20036;-74
2022/07/10 02:40:52;;;;;;;10.85;2.90;;;;;;;13.38;81.30;102521.03;5013932;28;20347;-76
2022/07/10 02:43:18;;;;;;;11.20;2.70;;;;;;;13.38;81.57;102521.88;5015230;28;20022;-76
2022/07/10 02:45:43;;;;;;;9.07;2.75;;;;;;;13.39;81.97;102514.53;5009404;28;20037;-75
2022/07/10 02:48:08;;;;;;;7.80;2.58;;;;;;;13.25;83.46;102516.34;4994905;28;20026;-77
2022/07/10 02:50:34;;;;;;;6.35;2.67;;;;;;;13.22;83.23;102520.28;4994163;28;20030;-76
2022/07/10 02:52:59;;;;;;;9.05;2.60;;;;;;;13.21;83.46;102515.06;4990017;28;20378;-73
2022/07/10 02:55:24;;;;;;;8.70;2.85;;;;;;;13.21;83.75;102517.78;4975959;28;20022;-76
2022/07/10 02:57:50;;;;;;;6.55;2.65;;;;;;;13.19;84.62;102517.97;4975723;28;20038;-79
2022/07/10 03:00:15;;;;;;;7.25;2.65;;;;;;;13.10;84.90;102514.59;4974503;28;20096;-76
2022/07/10 03:02:41;;;;;;;8.82;2.60;;;;;;;13.15;85.15;102513.16;4973335;28;20029;-74
2022/07/10 03:05:07;;;;;;;5.68;2.35;;;;;;;13.14;85.18;102512.31;4975871;28;20027;-76
2022/07/10 03:07:33;;;;;;;10.95;2.97;;;;;;;13.14;85.55;102508.78;4991411;28;20046;-75
2022/07/10 03:09:58;;;;;;;6.57;2.50;;;;;;;13.15;85.92;102515.84;4995408;28;20038;-75
2022/07/10 03:12:23;;;;;;;7.53;2.67;;;;;;;13.14;85.76;102514.19;4995048;28;20054;-78
2022/07/10 03:14:48;;;;;;;12.02;3.20;;;;;;;13.10;86.16;102513.75;4995115;28;20018;-76
2022/07/10 03:17:14;;;;;;;8.07;2.70;;;;;;;13.07;86.73;102503.28;4994624;28;20041;-76
2022/07/10 03:19:39;;;;;;;9.70;2.80;;;;;;;13.02;87.61;102517.47;4994975;28;20442;-76
2022/07/10 03:22:04;;;;;;;9.93;2.90;;;;;;;13.05;87.39;102521.69;4993565;28;20034;-74
2022/07/10 03:24:30;;;;;;;6.97;2.75;;;;;;;13.00;87.81;102518.69;4994667;28;20030;-76
2022/07/10 03:26:55;;;;;;;4.15;2.60;;;;;;;13.02;87.84;102520.19;4993533;28;20053;-75
2022/07/10 03:29:20;;;;;;;8.35;3.20;;;;;;;12.96;88.16;102509.28;4992942;28;20068;-77
2022/07/10 03:31:46;;;;;;;9.57;3.28;;;;;;;12.94;88.81;102506.78;4994504;28;20022;-77
2022/07/10 03:34:11;;;;;;;8.50;2.80;;;;;;;12.94;89.05;102507.59;4994617;28;20377;-75
2022/07/10 03:36:36;;;;;;;12.85;3.25;;;;;;;12.90;89.29;102509.03;5007559;28;20122;-75
2022/07/10 03:39:02;;;;;;;10.48;3.00;;;;;;;12.91;89.24;102505.28;5013279;28;20358;-74
2022/07/10 03:41:27;;;;;;;7.30;2.80;;;;;;;12.90;89.39;102492.75;5012899;28;20029;-75
2022/07/10 03:43:52;;;;;;;5.95;3.22;;;;;;;12.90;89.19;102495.44;5013839;28;20434;-74
2022/07/10 03:46:17;;;;;;;10.05;3.10;;;;;;;12.88;89.48;102496.72;5012752;28;20116;-74
2022/07/10 03:48:43;;;;;;;7.75;2.95;;;;;;;12.90;90.33;102492.75;5013803;28;20412;-77
2022/07/10 03:51:08;;;;;;;5.00;2.65;;;;;;;12.98;88.92;102489.00;4985300;28;20123;-74
2022/07/10 03:53:33;;;;;;;5.82;2.92;;;;;;;13.00;89.62;102488.81;4974417;28;20034;-78
2022/07/10 03:56:00;;;;;;;7.43;2.83;;;;;;;12.98;88.91;102488.19;4974573;28;20057;-77
2022/07/10 03:58:26;;;;;;;7.90;3.13;;;;;;;12.97;89.65;102492.78;4974788;28;20031;-75
2022/07/10 04:00:51;;;;;;;6.43;2.70;;;;;;;12.98;88.70;102490.91;4972206;28;20019;-77
2022/07/10 04:03:16;;;;;;;7.03;2.75;;;;;;;13.02;89.01;102493.00;4989676;28;20033;-74
2022/07/10 04:05:42;;;;;;;5.20;2.70;;;;;;;13.06;88.97;102490.75;4985640;28;20026;-75
2022/07/10 04:08:08;;;;;;;8.05;2.78;;;;;;;13.04;88.11;102490.09;4993184;28;20030;-77
2022/07/10 04:10:34;;;;;;;8.05;3.30;;;;;;;13.07;88.71;102492.41;4993947;28;20026;-75
2022/07/10 04:13:00;;;;;;;10.57;3.20;;;;;;;13.09;88.51;102498.50;4993981;28;20026;-77
2022/07/10 04:15:25;;;;;;;8.15;2.80;;;;;;;13.11;87.98;102491.81;4993955;28;20346;-76
2022/07/10 04:17:51;;;;;;;5.80;2.97;;;;;;;13.09;88.66;102498.50;4992162;28;20069;-76
2022/07/10 04:20:17;;;;;;;10.05;3.28;;;;;;;13.10;89.22;102505.59;4982471;28;20057;-76
2022/07/10 04:22:42;;;;;;;8.43;2.78;;;;;;;13.08;89.58;102505.78;4974171;28;20029;-76
2022/07/10 04:25:09;;;;;;;8.88;2.90;;;;;;;13.08;89.40;102499.53;4973084;28;20457;-77
2022/07/10 04:27:34;;;;;;;11.80;3.15;;;;;;;13.08;90.12;102497.66;4985030;28;20026;-75
2022/07/10 04:30:00;;;;;;;11.77;3.53;;;;;;;13.10;90.53;102489.28;5008756;28;20056;-77
2022/07/10 04:32:25;;;;;;;8.77;3.00;;;;;;;13.05;91.23;102492.63;4993363;28;20030;-76
2022/07/10 04:34:51;;;;;;;9.13;3.00;;;;;;;13.05;91.15;102489.91;4992232;28;20109;-76
2022/07/10 04:37:16;;;;;;;7.88;3.42;;;;;;;13.08;91.23;102494.94;5007697;28;20034;-77
2022/07/10 04:39:41;;;;;;;8.45;3.03;;;;;;;13.09;91.18;102490.34;5008225;28;20093;-77
2022/07/10 04:42:08;;;;;;;11.48;3.05;;;;;;;13.11;91.25;102489.09;4993500;28;20425;-74
2022/07/10 04:44:33;;;;;;;8.57;3.45;;;;;;;13.12;92.62;102498.09;4992176;28;20442;-77
2022/07/10 04:46:59;;;;;;;11.40;3.00;;;;;;;13.20;90.71;102492.47;4991780;28;20100;-77
2022/07/10 04:49:25;;;;;;;8.20;2.80;;;;;;;13.15;91.92;102481.38;4991050;28;20023;-75
2022/07/10 04:51:50;;;;;;;11.45;3.10;;;;;;;13.24;91.22;102488.31;4991740;28;20026;-75
2022/07/10 04:54:15;;;;;;;7.75;2.95;;;;;;;13.25;92.24;102495.41;4993385;28;20091;-77
2022/07/10 04:56:41;;;;;;;9.30;2.92;;;;;;;13.24;94.15;102498.34;4992910;28;20022;-74
2022/07/10 04:59:06;;;;;;;7.70;3.28;;;;;;;13.18;92.44;102500.00;4993542;28;20030;-78
2022/07/10 05:01:31;;;;;;;12.95;2.90;;;;;;;13.19;93.63;102501.66;5003697;28;20034;-76
2022/07/10 05:03:57;;;;;;;8.68;3.10;;;;;;;13.27;93.86;102503.38;4981480;28;20026;-75
2022/07/10 05:06:23;;;;;;;7.95;3.22;;;;;;;13.33;93.06;102499.88;4993276;28;20034;-78
2022/07/10 05:08:48;;;;;;;10.05;3.38;;;;;;;13.37;91.60;102489.44;4992749;28;20053;-77
2022/07/10 05:11:13;;;;;;;9.73;3.25;;;;;;;13.33;93.83;102496.28;4993399;28;20054;-75
2022/07/10 05:13:39;;;;;;;10.27;3.10;;;;;;;13.33;93.97;102504.44;4991670;28;20026;-75
2022/07/10 05:16:05;;;;;;;10.57;3.53;;;;;;;13.40;95.08;102499.91;4992570;28;20034;-75
2022/07/10 05:18:30;;;;;;;9.80;2.85;;;;;;;13.43;94.95;102499.50;4991689;28;20097;-75
2022/07/10 05:20:56;;;;;;;8.63;3.20;;;;;;;13.50;94.72;102497.66;4991977;28;20034;-77
2022/07/10 05:23:21;;;;;;;7.97;2.70;;;;;;;13.54;93.29;102501.66;5008097;28;20062;-76
2022/07/10 05:25:47;;;;;;;8.35;3.20;;;;;;;13.53;95.67;102505.41;4991567;28;20037;-77
2022/07/10 05:28:15;;;;;;;8.63;3.22;;;;;;;13.57;95.42;102503.97;5008138;28;20069;-78
2022/07/10 05:30:41;;;;;;;10.60;2.80;;;;;;;13.62;96.83;102489.75;4998526;28;20022;-77
2022/07/10 05:33:06;;;;;;;10.68;2.97;;;;;;;13.65;96.52;102498.31;4971947;28;20382;-74
2022/07/10 05:35:32;;;;;;;7.13;2.50;;;;;;;13.70;95.77;102499.59;4972251;28;20058;-75
2022/07/10 05:37:57;;;;;;;11.00;3.08;;;;;;;13.74;94.50;102498.13;4973365;28;20085;-75
2022/07/10 05:40:23;;;;;;;9.45;2.78;;;;;;;13.81;94.96;102498.97;4972267;28;20469;-74
2022/07/10 05:42:48;;;;;;;9.20;2.72;;;;;;;13.84;94.11;102501.28;4985902;28;20142;-75
2022/07/10 05:45:13;;;;;;;13.00;2.75;;;;;;;13.91;96.34;102499.41;4972736;28;20418;-74
2022/07/10 05:47:39;;;;;;;9.43;2.47;;;;;;;13.98;96.93;102503.00;4992712;28;20054;-77
2022/07/10 05:50:04;;;;;;;6.72;2.10;;;;;;;14.10;96.32;102505.09;5007931;28;20081;-76
2022/07/10 05:52:30;;;;;;;9.40;2.05;;;;;;;14.14;93.22;102500.91;4991589;28;20027;-77
2022/07/10 05:54:56;;;;;;;10.73;2.53;;;;;;;14.23;93.43;102499.66;4991376;28;20473;-75
2022/07/10 05:57:21;;;;;;;8.93;2.30;;;;;;;14.32;93.53;102505.72;4991562;28;20461;-78
2022/07/10 05:59:47;;;;;;;9.80;2.58;;;;;;;14.44;94.03;102503.22;4991204;28;20026;-75
2022/07/10 06:02:12;;;;;;;9.48;2.10;;;;;;;14.53;90.64;102491.06;5005646;28;20061;-77
2022/07/10 06:04:37;;;;;;;9.05;2.25;;;;;;;14.68;92.39;102508.03;4996333;28;20062;-74
2022/07/10 06:07:03;;;;;;;10.57;2.15;;;;;;;14.77;90.40;102503.22;5011145;28;20032;-74
2022/07/10 06:09:28;;;;;;;6.95;1.90;;;;;;;14.84;86.29;102492.28;4996212;28;20033;-75
2022/07/10 06:11:53;;;;;;;7.82;2.05;;;;;;;14.94;84.18;102494.56;4995975;28;20022;-76
2022/07/10 06:14:19;;;;;;;6.97;2.10;;;;;;;14.98;84.44;102490.38;4996006;28;20030;-75
2022/07/10 06:16:44;;;;;;;7.75;2.13;;;;;;;15.04;83.68;102486.78;5010859;28;20029;-76
2022/07/10 06:19:09;;;;;;;7.13;2.00;;;;;;;15.09;82.60;102489.69;5012027;28;20376;-77
2022/07/10 06:21:34;;;;;;;8.63;2.00;;;;;;;15.19;80.82;102501.00;4975411;28;20031;-74
2022/07/10 06:24:00;;;;;;;8.60;1.90;;;;;;;15.28;81.85;102498.88;4975051;28;20406;-75
2022/07/10 06:26:25;;;;;;;8.60;2.30;;;;;;;15.37;80.12;102494.00;4975316;28;20030;-78
2022/07/10 06:28:50;;;;;;;10.27;2.13;;;;;;;15.47;80.30;102493.53;4974912;28;20022;-76
2022/07/10 06:31:16;;;;;;;8.07;1.83;;;;;;;15.56;78.58;102501.22;4994918;28;20019;-75
2022/07/10 06:33:41;;;;;;;7.13;1.83;;;;;;;15.58;76.96;102498.31;4974906;28;20041;-77
2022/07/10 06:36:07;;;;;;;9.25;2.10;;;;;;;15.63;78.42;102501.22;4974955;28;20031;-73
2022/07/10 06:38:33;;;;;;;11.57;2.33;;;;;;;15.65;77.52;102496.34;4974958;28;20030;-74
2022/07/10 06:40:58;;;;;;;10.82;2.10;;;;;;;15.68;76.88;102490.47;4974285;28;20026;-74
2022/07/10 06:43:24;;;;;;;8.68;1.63;;;;;;;15.81;76.08;102494.22;4974649;28;20033;-75
2022/07/10 06:45:50;;;;;;;6.50;1.63;;;;;;;15.84;75.71;102491.03;4975090;28;20138;-76
2022/07/10 06:48:16;;;;;;;7.25;1.70;;;;;;;15.88;75.68;102497.72;4976121;28;20109;-77
2022/07/10 06:50:41;;;;;;;9.23;1.83;;;;;;;15.89;74.74;102493.94;4974606;28;20097;-76
2022/07/10 06:53:07;;;;;;;7.80;2.22;;;;;;;15.88;74.18;102486.78;4990734;28;20058;-75
2022/07/10 06:55:33;;;;;;;10.32;1.88;;;;;;;15.89;76.22;102491.22;4990920;28;20049;-75
2022/07/10 06:57:59;;;;;;;8.52;1.95;;;;;;;15.88;75.05;102492.25;4975771;28;20031;-75
2022/07/10 07:00:25;;;;;;;7.90;1.63;;;;;;;15.94;76.02;102494.97;4975232;28;20027;-74
2022/07/10 07:02:50;;;;;;;10.70;2.22;;;;;;;15.93;74.51;102492.44;5008856;28;20072;-76
2022/07/10 07:05:16;;;;;;;11.25;2.83;;;;;;;16.03;75.42;102495.50;4995354;28;20117;-73
2022/07/10 07:07:41;;;;;;;6.95;1.83;;;;;;;16.08;75.07;102486.66;4995189;28;20417;-73
2022/07/10 07:10:08;;;;;;;8.15;2.30;;;;;;;16.13;74.07;102495.84;5008818;28;20489;-76
2022/07/10 07:12:33;;;;;;;6.50;1.58;;;;;;;16.17;74.95;102484.47;4993992;28;20465;-76
2022/07/10 07:14:58;;;;;;;8.80;1.70;;;;;;;16.23;74.45;102494.50;4993950;28;20022;-73
2022/07/10 07:17:25;;;;;;;10.70;1.80;;;;;;;16.28;73.76;102490.06;4994807;28;20378;-76
2022/07/10 07:25:20;;;;;;;8.55;2.00;;;;;;;16.57;74.28;102506.00;4994896;28;20589;-74
2022/07/10 07:27:45;;;;;;;9.27;2.03;;;;;;;16.52;73.36;102503.13;4993329;28;20041;-73
2022/07/10 07:30:15;;;;;;;7.82;1.98;;;;;;;16.53;73.93;102502.88;4996195;28;20033;-75
2022/07/10 07:32:42;;;;;;;11.20;2.53;;;;;;;16.52;73.42;102512.13;4976023;28;20150;-77
2022/07/10 07:35:08;;;;;;;10.15;2.40;;;;;;;16.48;74.49;102503.53;4974938;28;20459;-74
2022/07/10 07:37:41;;;;;;;10.75;2.00;;;;;;;16.58;74.56;102518.59;4975573;28;20147;-74
2022/07/10 07:40:09;;;;;;;7.45;2.42;;;;;;;16.53;74.31;102510.22;4974895;28;20038;-77
2022/07/10 07:42:35;;;;;;;6.25;2.20;;;;;;;16.50;73.61;102507.94;4975230;28;20022;-78
2022/07/10 07:45:01;;;;;;;6.97;2.40;;;;;;;16.47;72.45;102507.34;4992776;28;20464;-76
2022/07/10 07:47:27;;;;;;;10.27;2.42;;;;;;;16.47;73.07;102511.94;4993279;28;20448;-78
2022/07/10 07:49:52;;;;;;;9.75;3.13;;;;;;;16.48;73.27;102510.91;4992876;28;20109;-78
2022/07/10 07:52:18;;;;;;;10.50;2.95;;;;;;;16.47;72.62;102507.34;4992315;28;20033;-77
2022/07/10 07:54:43;;;;;;;10.05;2.97;;;;;;;16.58;73.41;102504.94;4993308;28;20110;-78
2022/07/10 07:57:08;;;;;;;13.68;3.05;;;;;;;16.65;73.05;102501.09;5008214;28;20050;-75
2022/07/10 07:59:34;;;;;;;9.57;2.60;;;;;;;16.67;72.15;102506.31;5001800;28;20033;-74
2022/07/10 08:02:00;;;;;;;13.25;2.80;;;;;;;16.66;72.68;102505.47;5011195;28;20372;-76
2022/07/10 08:04:25;;;;;;;12.50;3.03;;;;;;;16.61;72.52;102508.06;5013818;28;20156;-73
2022/07/10 08:06:52;;;;;;;11.98;2.78;;;;;;;16.57;72.77;102512.28;5003013;28;20081;-79
2022/07/10 08:09:18;;;;;;;10.35;3.38;;;;;;;16.55;72.93;102508.13;4992744;28;20026;-77
2022/07/10 08:11:44;;;;;;;10.25;3.17;;;;;;;16.57;72.61;102516.94;4987613;28;20026;-76
2022/07/10 08:14:10;;;;;;;8.13;2.97;;;;;;;16.55;73.23;102516.31;4990412;28;20038;-74
2022/07/10 08:16:35;;;;;;;11.35;3.38;;;;;;;16.56;72.96;102513.38;4994107;28;20026;-75
2022/07/10 08:19:29;;;;;;;8.07;3.00;;;;;;;16.60;73.52;102506.38;4989189;28;20525;-76
2022/07/10 08:22:04;;;;;;;9.57;3.05;;;;;;;16.64;72.35;102496.66;4981273;28;20414;-75
2022/07/10 08:24:29;;;;;;;12.63;3.47;;;;;;;16.71;72.35;102502.06;4993295;28;20073;-76
2022/07/10 08:26:55;;;;;;;8.27;3.40;;;;;;;16.68;71.89;102491.56;4982383;28;20054;-76
2022/07/10 08:29:23;;;;;;;14.95;3.25;;;;;;;16.78;72.26;102504.75;4974333;28;20589;-76
2022/07/10 08:31:48;;;;;;;10.43;3.17;;;;;;;16.76;71.09;102510.44;4974138;28;20030;-76
2022/07/10 08:34:13;;;;;;;12.57;3.40;;;;;;;16.75;72.46;102503.28;4973591;28;20105;-77
2022/07/10 08:36:38;;;;;;;10.50;2.85;;;;;;;16.86;72.80;102501.69;4985476;28;20037;-76
2022/07/10 08:39:04;;;;;;;11.20;2.70;;;;;;;16.89;72.01;102497.72;5012980;28;20022;-76
2022/07/10 08:41:31;;;;;;;11.50;2.88;;;;;;;16.95;71.92;102505.00;5012919;28;20032;-76
2022/07/10 08:43:56;;;;;;;12.18;2.90;;;;;;;16.90;72.32;102504.84;5012986;28;20025;-76
2022/07/10 08:46:23;;;;;;;11.82;2.88;;;;;;;16.86;72.04;102503.59;4995161;28;20469;-76
2022/07/10 08:48:52;;;;;;;8.80;2.50;;;;;;;16.88;72.71;102501.50;4984691;28;20034;-75
2022/07/10 08:51:30;;;;;;;15.10;2.95;;;;;;;16.85;72.85;102502.78;4992254;28;20018;-78
2022/07/10 08:53:57;;;;;;;10.07;2.65;;;;;;;16.90;72.62;102497.47;4993152;28;20038;-81
2022/07/10 08:56:22;;;;;;;10.00;2.22;;;;;;;16.89;72.13;102504.00;4993178;28;20473;-77
2022/07/10 08:58:50;;;;;;;10.35;2.50;;;;;;;16.90;72.85;102504.84;4994136;28;20080;-78
2022/07/10 09:01:22;;;;;;;7.93;2.78;;;;;;;16.94;72.74;102511.53;4991576;28;20113;-76
2022/07/10 09:03:48;;;;;;;7.53;2.53;;;;;;;16.91;72.00;102506.50;5003774;28;20034;-77
2022/07/10 09:06:13;;;;;;;7.13;2.47;;;;;;;16.92;72.85;102502.72;4977571;28;20027;-77
2022/07/10 09:08:58;;;;;;;10.52;2.85;;;;;;;16.94;72.70;102508.78;4982855;28;20122;-76
2022/07/10 09:11:25;;;;;;;7.28;2.60;;;;;;;16.98;73.17;102508.13;4993305;28;20037;-75
2022/07/10 09:13:50;;;;;;;12.00;2.70;;;;;;;17.02;73.50;102504.94;4993174;28;20022;-78
2022/07/10 09:16:24;;;;;;;8.85;2.80;;;;;;;17.01;72.41;102501.34;4995851;28;20559;-76
2022/07/10 09:18:49;;;;;;;8.77;2.47;;;;;;;17.03;73.64;102490.19;5012776;28;20381;-77
2022/07/10 09:21:14;;;;;;;9.00;2.50;;;;;;;17.09;72.81;102492.00;5012523;28;20022;-76
2022/07/10 09:23:40;;;;;;;5.15;2.17;;;;;;;17.13;72.70;102488.59;5004133;28;20566;-76
2022/07/10 09:26:05;;;;;;;8.65;2.90;;;;;;;17.23;72.63;102484.50;4990935;28;20116;-77
2022/07/10 09:28:30;;;;;;;6.47;2.42;;;;;;;17.34;72.35;102489.19;4991725;28;20029;-76
2022/07/10 09:30:56;;;;;;;9.93;2.70;;;;;;;17.39;72.51;102492.03;4992982;28;20106;-77
2022/07/10 09:33:33;;;;;;;9.30;2.80;;;;;;;17.37;72.20;102488.72;5008129;28;20044;-78
2022/07/10 09:36:06;;;;;;;12.88;2.78;;;;;;;17.34;72.05;102484.53;5011608;28;20508;-77
2022/07/10 09:38:43;;;;;;;8.00;2.00;;;;;;;17.33;71.71;102484.75;5015212;28;20454;-77
2022/07/10 09:41:15;;;;;;;10.38;2.50;;;;;;;17.34;71.99;102479.06;5013859;28;20168;-75
2022/07/10 09:43:58;;;;;;;9.82;2.55;;;;;;;17.41;71.77;102472.66;5016291;28;20485;-75
2022/07/10 09:46:31;;;;;;;6.00;2.30;;;;;;;17.44;72.18;102481.25;5004592;28;20019;-75
2022/07/10 09:49:01;;;;;;;4.82;2.10;;;;;;;17.44;71.85;102478.53;4995011;28;20032;-77
2022/07/10 09:51:47;;;;;;;7.30;2.50;;;;;;;17.36;71.30;102478.81;4986916;28;20034;-76
2022/07/10 09:54:15;;;;;;;8.07;2.72;;;;;;;17.35;70.78;102485.38;4995038;28;20076;-77
2022/07/10 09:56:43;;;;;;;9.35;2.45;;;;;;;17.35;72.13;102469.78;4995434;28;20032;-77
2022/07/10 09:59:19;;;;;;;8.93;2.53;;;;;;;17.56;72.89;102474.97;4994907;28;20022;-76
2022/07/10 10:01:49;;;;;;;5.82;2.45;;;;;;;17.63;70.97;102475.72;4986007;28;20030;-75
2022/07/10 10:04:19;;;;;;;5.45;2.50;;;;;;;17.70;70.16;102473.72;4976525;28;20026;-76
2022/07/10 10:06:49;;;;;;;6.57;2.60;;;;;;;17.67;69.73;102475.03;4987271;28;20026;-76
2022/07/10 10:09:22;;;;;;;5.85;2.38;;;;;;;17.74;71.13;102469.47;4983393;28;20445;-78
2022/07/10 10:11:49;;;;;;;7.13;2.58;;;;;;;17.76;71.05;102472.78;4995036;28;20077;-74
2022/07/10 10:14:18;;;;;;;7.05;2.20;;;;;;;17.83;70.25;102469.94;4995121;28;20480;-79
2022/07/10 10:16:45;;;;;;;7.00;2.42;;;;;;;17.94;70.50;102468.34;4996231;28;20033;-77
2022/07/10 10:21:57;;;;;;;8.23;2.78;;;;;;;18.17;69.52;102470.28;4996101;28;20041;-79
2022/07/10 10:24:23;;;;;;;6.70;2.60;;;;;;;18.23;69.45;102464.69;5010338;28;20496;-79
2022/07/10 10:26:49;;;;;;;7.95;2.75;;;;;;;18.16;68.04;102463.13;5015619;28;20029;-78
2022/07/10 10:29:14;;;;;;;11.80;4.00;;;;;;;18.13;68.14;102464.47;5005799;28;20556;-79
2022/07/10 10:31:42;;;;;;;7.03;2.42;;;;;;;18.06;68.44;102459.06;5000632;28;20060;-78
2022/07/10 10:34:08;;;;;;;5.20;2.38;;;;;;;18.13;68.61;102450.75;4989489;28;20027;-78
2022/07/10 10:36:36;;;;;;;9.02;2.60;;;;;;;18.27;68.53;102454.09;4976496;28;20027;-78
2022/07/10 10:39:22;;;;;;;7.68;2.58;;;;;;;18.36;68.67;102458.16;4976837;28;20109;-79
2022/07/10 10:41:47;;;;;;;3.88;1.88;;;;;;;18.44;66.45;102456.13;4991845;28;20065;-78
2022/07/10 10:44:16;;;;;;;7.20;2.40;;;;;;;18.47;66.81;102455.66;4995548;28;20030;-78
2022/07/10 10:46:50;;;;;;;5.22;1.80;;;;;;;18.54;66.59;102459.94;4998532;28;20283;-78
2022/07/10 10:49:17;;;;;;;5.95;1.90;;;;;;;18.56;65.99;102446.81;5001749;28;20026;-80
2022/07/10 10:52:01;;;;;;;5.30;2.17;;;;;;;18.64;66.17;102447.53;4995587;28;20041;-78
2022/07/10 10:54:28;;;;;;;5.50;2.05;;;;;;;18.66;65.82;102456.34;4995507;28;20031;-80
2022/07/10 10:57:14;;;;;;;4.28;1.80;;;;;;;18.66;66.57;102448.09;4994522;28;20030;-77
2022/07/10 10:59:51;;;;;;;4.55;1.80;;;;;;;18.69;66.80;102453.09;4995506;28;20022;-78
2022/07/10 11:02:40;;;;;;;8.52;2.47;;;;;;;18.70;66.96;102446.56;5005775;28;20377;-78
2022/07/10 11:05:12;;;;;;;6.47;1.90;;;;;;;18.74;66.76;102442.28;5012826;28;20449;-79
2022/07/10 11:07:58;;;;;;;5.80;1.77;;;;;;;18.80;67.09;102451.44;4974556;28;20118;-79
2022/07/10 11:10:32;;;;;;;6.40;2.10;;;;;;;18.77;66.22;102442.59;4974609;28;20025;-78
2022/07/10 11:13:04;;;;;;;2.58;1.50;;;;;;;18.77;65.26;102439.03;4975770;28;20027;-80
2022/07/10 11:15:32;;;;;;;5.22;1.80;;;;;;;18.75;65.45;102441.19;4974387;28;20077;-78
2022/07/10 11:17:58;;;;;;;6.25;1.90;;;;;;;18.73;65.71;102438.66;4979699;28;20046;-77
2022/07/10 11:20:24;;;;;;;5.32;1.80;;;;;;;18.85;66.10;102437.84;4994649;28;20022;-76
2022/07/10 11:23:05;;;;;;;6.70;1.83;;;;;;;18.88;65.47;102437.38;4994925;28;20023;-77
2022/07/10 11:26:08;;;;;;;4.32;1.85;;;;;;;18.96;65.95;102428.75;4993758;28;20026;-78
2022/07/10 11:28:51;;;;;;;4.47;1.70;;;;;;;19.09;65.94;102427.66;4993550;28;20022;-79
2022/07/10 11:31:21;;;;;;;4.20;1.55;;;;;;;19.22;65.58;102427.38;4994616;28;20037;-78
2022/07/10 11:33:48;;;;;;;5.22;1.90;;;;;;;19.27;64.72;102429.38;4983709;28;20133;-77